createdAt,value
2018-01-20T00:05:25.822Z,2.10
2018-01-20T00:07:54.860Z,2.30
2018-01-20T00:10:34.367Z,2.37
2018-01-20T00:13:03.421Z,2.23
2018-01-20T00:15:31.674Z,3.03
2018-01-20T00:18:03.743Z,2.20
2018-01-20T00:20:32.091Z,2.60
2018-01-20T00:23:00.402Z,2.37
2018-01-20T00:34:08.679Z,2.33
2018-01-20T00:36:36.946Z,2.10
2018-01-20T00:39:05.358Z,2.00
2018-01-20T00:41:33.634Z,1.93
2018-01-20T00:44:02.125Z,2.40
2018-01-20T00:46:30.405Z,3.03
2018-01-20T00:48:58.681Z,2.03
2018-01-20T00:51:27.126Z,2.37
2018-01-20T01:11:13.024Z,2.10
2018-01-20T01:13:41.284Z,1.77
2018-01-20T01:16:09.576Z,2.03
2018-01-20T01:18:37.849Z,1.90
2018-01-20T01:21:06.109Z,2.00
2018-01-20T01:23:34.385Z,2.30
2018-01-20T01:26:02.639Z,2.37
2018-01-20T01:28:30.970Z,2.63
2018-01-20T01:30:59.997Z,1.80
2018-01-20T01:50:47.986Z,2.83
2018-01-20T01:53:16.398Z,2.50
2018-01-20T01:55:44.672Z,2.20
2018-01-20T01:58:12.943Z,3.23
2018-01-20T02:00:41.200Z,2.37
2018-01-20T02:03:09.471Z,2.33
2018-01-20T02:05:37.748Z,2.97
2018-01-20T02:08:06.026Z,2.20
2018-01-20T02:10:34.300Z,2.47
2018-01-20T02:30:22.921Z,2.27
2018-01-20T02:32:51.188Z,2.33
2018-01-20T02:35:19.874Z,2.80
2018-01-20T02:37:48.943Z,2.00
2018-01-20T02:40:17.193Z,2.77
2018-01-20T02:42:45.455Z,2.80
2018-01-20T02:45:14.636Z,2.67
2018-01-20T03:03:25.420Z,2.40
2018-01-20T03:05:54.758Z,2.30
2018-01-20T03:08:23.030Z,2.07
2018-01-20T03:10:51.301Z,3.53
2018-01-20T03:13:19.562Z,2.60
2018-01-20T03:15:47.832Z,2.20
2018-01-20T03:18:16.333Z,2.43
2018-01-20T03:20:44.256Z,2.30
2018-01-20T03:23:12.321Z,2.53
2018-01-20T03:43:00.228Z,2.77
2018-01-20T03:45:28.652Z,3.03
2018-01-20T03:47:57.136Z,2.30
2018-01-20T03:50:25.395Z,2.07
2018-01-20T03:52:53.491Z,3.13
2018-01-20T03:55:21.749Z,2.63
2018-01-20T03:57:50.013Z,4.00
2018-01-20T04:00:18.274Z,2.97
2018-01-20T04:02:46.516Z,3.03
2018-01-20T04:22:34.576Z,2.80
2018-01-20T04:25:02.863Z,3.37
2018-01-20T04:27:31.131Z,2.83
2018-01-20T04:29:59.415Z,2.90
2018-01-20T04:32:27.711Z,3.07
2018-01-20T04:34:55.964Z,3.40
2018-01-20T04:37:24.248Z,3.90
2018-01-20T04:39:52.548Z,3.27
2018-01-20T04:42:20.813Z,3.13
2018-01-20T05:02:07.910Z,3.57
2018-01-20T05:04:36.181Z,3.80
2018-01-20T05:07:04.478Z,4.27
2018-01-20T05:09:32.733Z,3.50
2018-01-20T05:12:01.000Z,3.60
2018-01-20T05:14:29.374Z,3.60
2018-01-20T05:16:57.648Z,3.43
2018-01-20T05:19:25.921Z,3.23
2018-01-20T05:21:54.168Z,3.33
2018-01-20T05:41:41.924Z,3.57
2018-01-20T05:44:10.207Z,3.87
2018-01-20T05:46:38.511Z,3.63
2018-01-20T05:49:06.788Z,4.73
2018-01-20T05:51:35.062Z,4.70
2018-01-20T05:54:03.340Z,6.27
2018-01-20T05:56:31.734Z,7.50
2018-01-20T05:59:00.052Z,7.00
2018-01-20T06:01:28.347Z,7.97
2018-01-20T06:21:16.208Z,8.70
2018-01-20T06:23:45.246Z,7.57
2018-01-20T06:26:13.529Z,7.07
2018-01-20T06:28:41.812Z,7.03
2018-01-20T06:31:10.076Z,7.40
2018-01-20T06:33:38.336Z,7.17
2018-01-20T06:36:06.621Z,7.07
2018-01-20T06:38:34.883Z,6.60
2018-01-20T06:41:03.152Z,7.43
2018-01-20T07:00:51.495Z,6.50
2018-01-20T07:03:19.752Z,7.60
2018-01-20T07:05:48.776Z,7.50
2018-01-20T07:08:17.050Z,7.37
2018-01-20T07:10:45.307Z,8.00
2018-01-20T07:13:13.587Z,8.00
2018-01-20T07:15:41.655Z,9.20
2018-01-20T07:18:09.930Z,9.23
2018-01-20T07:20:38.189Z,8.63
2018-01-20T07:40:25.105Z,9.83
2018-01-20T07:42:53.386Z,9.70
2018-01-20T07:45:21.688Z,11.33
2018-01-20T07:47:49.965Z,11.70
2018-01-20T07:50:18.248Z,12.33
2018-01-20T07:52:46.506Z,12.10
2018-01-20T07:55:14.783Z,13.23
2018-01-20T07:57:43.065Z,12.23
2018-01-20T08:00:11.325Z,13.30
2018-01-20T08:19:57.450Z,13.03
2018-01-20T08:22:25.716Z,13.57
2018-01-20T08:24:54.015Z,13.13
2018-01-20T08:27:22.294Z,13.40
2018-01-20T08:29:50.573Z,13.43
2018-01-20T08:32:18.850Z,13.53
2018-01-20T08:34:47.141Z,13.93
2018-01-20T08:37:15.409Z,13.33
2018-01-20T08:39:43.686Z,13.93
2018-01-20T08:59:30.756Z,13.33
2018-01-20T09:01:59.060Z,13.20
2018-01-20T09:04:27.336Z,12.47
2018-01-20T09:06:55.638Z,11.80
2018-01-20T09:09:23.922Z,12.07
2018-01-20T09:11:52.203Z,11.53
2018-01-20T09:14:20.493Z,11.67
2018-01-20T09:16:48.982Z,11.30
2018-01-20T09:19:18.026Z,11.50
2018-01-20T09:39:02.890Z,10.80
2018-01-20T09:41:31.256Z,11.20
2018-01-20T09:43:59.541Z,11.93
2018-01-20T09:46:27.809Z,10.40
2018-01-20T09:48:56.093Z,9.80
2018-01-20T09:51:24.350Z,10.63
2018-01-20T09:53:52.612Z,9.23
2018-01-20T09:56:20.880Z,10.50
2018-01-20T09:58:49.157Z,9.43
2018-01-20T10:18:37.087Z,8.83
2018-01-20T10:21:05.363Z,8.67
2018-01-20T10:23:33.676Z,8.33
2018-01-20T10:26:01.946Z,9.10
2018-01-20T10:28:30.299Z,8.80
2018-01-20T10:30:58.578Z,9.70
2018-01-20T10:33:26.871Z,10.03
2018-01-20T10:38:05.072Z,10.17
2018-01-20T10:40:34.103Z,10.40
2018-01-20T10:43:02.386Z,10.37
2018-01-20T10:45:30.657Z,10.37
2018-01-20T10:47:58.917Z,10.57
2018-01-20T10:50:27.221Z,11.60
2018-01-20T10:52:55.477Z,11.90
2018-01-20T10:55:23.745Z,12.70
2018-01-20T11:15:10.586Z,15.03
2018-01-20T11:17:38.878Z,14.77
2018-01-20T11:20:07.148Z,15.37
2018-01-20T11:22:35.442Z,16.97
2018-01-20T11:25:03.719Z,16.70
2018-01-20T11:27:32.035Z,17.03
2018-01-20T11:30:00.314Z,17.33
2018-01-20T11:32:28.579Z,17.73
2018-01-20T11:34:56.882Z,18.07
2018-01-20T11:37:25.155Z,18.97
2018-01-20T11:39:53.458Z,18.90
2018-01-20T11:42:21.764Z,18.73
2018-01-20T11:44:50.060Z,19.17
2018-01-20T11:47:18.339Z,18.77
2018-01-20T11:49:46.646Z,19.57
2018-01-20T11:52:14.914Z,19.47
2018-01-20T11:54:43.326Z,18.77
2018-01-20T11:57:11.622Z,19.93
2018-01-20T11:59:39.711Z,19.80
2018-01-20T12:02:07.814Z,21.27
2018-01-20T12:04:35.941Z,19.80
2018-01-20T12:07:04.206Z,20.43
2018-01-20T12:09:32.507Z,21.10
2018-01-20T12:12:00.817Z,21.30
2018-01-20T12:14:29.381Z,21.40
2018-01-20T12:16:57.656Z,21.57
2018-01-20T12:19:25.765Z,21.93
2018-01-20T12:21:53.874Z,22.53
2018-01-20T12:24:21.972Z,22.50
2018-01-20T12:26:50.072Z,23.37
2018-01-20T12:29:18.164Z,22.67
2018-01-20T12:31:46.258Z,24.10
2018-01-20T12:40:01.397Z,22.43
2018-01-20T12:42:29.517Z,22.67
2018-01-20T12:44:57.608Z,23.33
2018-01-20T12:47:25.696Z,23.77
2018-01-20T12:49:54.121Z,23.60
2018-01-20T12:52:22.405Z,23.27
2018-01-20T12:54:50.707Z,24.50
2018-01-20T12:57:18.984Z,24.97
2018-01-20T12:59:47.312Z,24.27
2018-01-20T13:05:11.124Z,22.33
2018-01-20T13:07:39.397Z,21.83
2018-01-20T13:10:07.683Z,21.87
2018-01-20T13:12:35.959Z,21.50
2018-01-20T13:15:04.257Z,21.40
2018-01-20T13:17:32.586Z,21.47
2018-01-20T13:20:00.874Z,21.73
2018-01-20T13:22:29.162Z,21.60
2018-01-20T13:24:57.465Z,21.17
2018-01-20T13:30:22.487Z,21.40
2018-01-20T13:32:50.768Z,21.97
2018-01-20T13:35:19.269Z,21.93
2018-01-20T13:37:47.713Z,22.27
2018-01-20T13:40:16.023Z,21.77
2018-01-20T13:42:44.286Z,22.43
2018-01-20T13:45:12.568Z,22.27
2018-01-20T13:47:40.849Z,22.93
2018-01-20T13:50:09.123Z,22.97
2018-01-20T13:58:23.298Z,23.30
2018-01-20T14:00:52.407Z,22.77
2018-01-20T14:03:20.710Z,24.43
2018-01-20T14:05:49.007Z,22.70
2018-01-20T14:08:16.982Z,22.47
2018-01-20T14:10:45.250Z,22.50
2018-01-20T14:13:13.560Z,23.07
2018-01-20T14:15:41.860Z,21.37
2018-01-20T14:18:10.176Z,21.87
2018-01-20T14:20:38.482Z,21.30
2018-01-20T14:23:06.755Z,22.00
2018-01-20T14:25:35.079Z,21.50
2018-01-20T14:28:03.376Z,21.97
2018-01-20T14:30:31.671Z,22.37
2018-01-20T14:32:59.976Z,22.20
2018-01-20T14:35:28.270Z,22.30
2018-01-20T14:37:56.558Z,22.10
2018-01-20T14:40:24.849Z,23.03
2018-01-20T14:42:53.119Z,22.80
2018-01-20T14:45:21.414Z,23.27
2018-01-20T14:47:49.716Z,22.17
2018-01-20T14:50:18.012Z,22.60
2018-01-20T14:52:46.302Z,23.03
2018-01-20T14:55:15.363Z,22.67
2018-01-20T14:57:43.673Z,23.40
2018-01-20T15:00:12.003Z,22.30
2018-01-20T15:02:40.108Z,22.50
2018-01-20T15:05:08.455Z,22.30
2018-01-20T15:07:36.759Z,20.93
2018-01-20T15:10:04.800Z,20.60
2018-01-20T15:12:33.104Z,20.87
2018-01-20T15:15:01.416Z,21.77
2018-01-20T15:17:29.694Z,21.70
2018-01-20T15:19:57.998Z,20.97
2018-01-20T15:22:27.103Z,21.07
2018-01-20T15:24:55.425Z,22.67
2018-01-20T15:27:23.744Z,23.80
2018-01-20T15:29:52.032Z,21.07
2018-01-20T15:32:20.343Z,18.80
2018-01-20T15:34:49.405Z,19.80
2018-01-20T15:37:17.710Z,18.40
2018-01-20T15:39:47.490Z,17.77
2018-01-20T15:42:15.760Z,18.53
2018-01-20T15:44:44.016Z,18.87
2018-01-20T15:47:12.329Z,17.47
2018-01-20T15:49:40.622Z,17.47
2018-01-20T15:52:08.885Z,17.57
2018-01-20T15:54:37.162Z,18.07
2018-01-20T15:57:05.440Z,18.23
2018-01-20T15:59:33.481Z,17.70
2018-01-20T16:05:00.906Z,17.20
2018-01-20T16:07:29.006Z,17.30
2018-01-20T16:09:57.093Z,18.00
2018-01-20T16:12:26.157Z,17.57
2018-01-20T16:14:54.418Z,16.47
2018-01-20T16:17:22.761Z,16.93
2018-01-20T16:19:51.076Z,16.90
2018-01-20T16:22:19.377Z,16.77
2018-01-20T16:24:47.657Z,17.80
2018-01-20T16:30:09.168Z,15.17
2018-01-20T16:32:37.285Z,16.13
2018-01-20T16:35:05.723Z,16.33
2018-01-20T16:37:33.994Z,15.13
2018-01-20T16:40:02.087Z,14.93
2018-01-20T16:42:30.486Z,14.73
2018-01-20T16:44:58.774Z,14.77
2018-01-20T16:47:27.084Z,15.30
2018-01-20T16:49:55.349Z,16.60
2018-01-20T16:55:17.833Z,17.40
2018-01-20T16:57:46.123Z,22.20
2018-01-20T17:00:14.403Z,21.60
2018-01-20T17:02:42.687Z,19.17
2018-01-20T17:05:10.961Z,19.37
2018-01-20T17:07:39.278Z,18.30
2018-01-20T17:10:07.550Z,18.90
2018-01-20T17:12:35.818Z,18.60
2018-01-20T17:15:04.120Z,22.37
2018-01-20T17:17:33.921Z,21.17
2018-01-20T17:20:02.184Z,20.93
2018-01-20T17:22:30.457Z,20.67
2018-01-20T17:24:58.745Z,21.30
2018-01-20T17:27:27.033Z,21.50
2018-01-20T17:29:56.320Z,21.50
2018-01-20T17:32:24.628Z,20.20
2018-01-20T17:34:52.920Z,21.13
2018-01-20T17:37:21.189Z,23.17
2018-01-20T17:39:49.643Z,24.90
2018-01-20T17:42:17.913Z,22.43
2018-01-20T17:44:46.216Z,21.63
2018-01-20T17:47:14.486Z,20.47
2018-01-20T17:49:43.348Z,21.90
2018-01-20T17:52:11.668Z,20.30
2018-01-20T17:54:39.750Z,19.97
2018-01-20T17:57:08.017Z,19.97
2018-01-20T17:59:45.400Z,20.57
2018-01-20T18:22:26.690Z,24.90
2018-01-20T18:24:54.993Z,24.33
2018-01-20T18:27:23.441Z,23.27
2018-01-20T18:29:51.897Z,24.97
2018-01-20T18:32:20.231Z,25.77
2018-01-20T18:34:48.550Z,25.73
2018-01-20T18:37:16.859Z,26.57
2018-01-20T18:39:46.016Z,24.53
2018-01-20T18:42:14.309Z,23.37
2018-01-20T18:44:43.649Z,24.17
2018-01-20T18:47:15.220Z,8.63
2018-01-20T18:49:44.283Z,5.70
2018-01-20T18:52:12.757Z,4.93
2018-01-20T18:54:41.027Z,6.03
2018-01-20T18:57:09.323Z,6.00
2018-01-20T18:59:37.612Z,5.67
2018-01-20T19:02:05.904Z,5.57
2018-01-20T19:04:34.186Z,4.43
2018-01-20T19:18:34.588Z,2.70
2018-01-20T19:21:02.894Z,2.87
2018-01-20T19:23:31.199Z,3.30
2018-01-20T19:25:59.482Z,3.33
2018-01-20T19:28:27.807Z,4.90
2018-01-20T19:30:56.210Z,3.90
2018-01-20T19:33:24.497Z,3.50
2018-01-20T19:35:52.789Z,4.40
2018-01-20T19:38:21.074Z,4.30
2018-01-20T19:40:49.726Z,4.33
2018-01-20T19:43:18.010Z,3.50
2018-01-20T19:45:46.278Z,2.73
2018-01-20T19:48:14.543Z,3.20
2018-01-20T19:50:42.841Z,3.13
2018-01-20T19:53:11.119Z,3.07
2018-01-20T19:55:39.416Z,3.03
2018-01-20T19:58:07.774Z,3.17
2018-01-20T20:00:36.985Z,4.00
2018-01-20T20:03:05.263Z,3.63
2018-01-20T20:05:34.290Z,4.70
2018-01-20T20:08:02.597Z,4.40
2018-01-20T20:10:30.896Z,4.80
2018-01-20T20:12:59.161Z,5.67
2018-01-20T20:15:27.465Z,4.90
2018-01-20T20:17:55.728Z,4.80
2018-01-20T20:20:24.024Z,6.37
2018-01-20T20:22:52.288Z,6.10
2018-01-20T20:25:20.584Z,6.73
2018-01-20T20:27:48.862Z,6.93
2018-01-20T20:30:17.321Z,6.97
2018-01-20T20:32:45.601Z,6.80
2018-01-20T20:35:13.881Z,7.33
2018-01-20T20:37:42.181Z,7.87
2018-01-20T20:40:10.149Z,6.57
2018-01-20T20:42:38.458Z,7.10
2018-01-20T20:45:06.735Z,10.97
2018-01-20T20:47:35.027Z,7.10
2018-01-20T20:50:03.308Z,4.97
2018-01-20T20:52:31.628Z,4.90
2018-01-20T20:54:59.913Z,5.53
2018-01-20T20:57:28.239Z,6.00
2018-01-20T20:59:56.536Z,6.87
2018-01-20T21:02:24.480Z,6.37
2018-01-20T21:04:52.878Z,5.70
2018-01-20T21:07:21.213Z,4.87
2018-01-20T21:09:49.499Z,4.50
2018-01-20T21:12:17.804Z,4.53
2018-01-20T21:14:46.101Z,5.30
2018-01-20T21:17:14.402Z,4.33
2018-01-20T21:19:42.716Z,4.20
2018-01-20T21:22:11.002Z,5.10
2018-01-20T21:24:39.348Z,5.23
2018-01-20T21:27:07.618Z,5.27
2018-01-20T21:29:35.917Z,5.77
2018-01-20T21:32:03.992Z,4.90
2018-01-20T21:34:33.021Z,5.47
2018-01-20T21:37:01.304Z,4.43
2018-01-20T21:39:29.612Z,4.50
2018-01-20T21:41:57.893Z,4.10
2018-01-20T21:44:26.169Z,4.43
2018-01-20T21:46:54.451Z,4.73
2018-01-20T21:49:22.758Z,5.00
2018-01-20T21:51:51.036Z,5.30
2018-01-20T21:54:19.335Z,5.53
2018-01-20T21:56:47.627Z,5.63
2018-01-20T21:59:16.127Z,5.40
2018-01-20T22:01:45.173Z,4.77
2018-01-20T22:04:15.329Z,4.80
2018-01-20T22:06:44.377Z,4.60
2018-01-20T22:09:12.865Z,2.97
2018-01-20T22:11:41.168Z,3.40
2018-01-20T22:14:09.455Z,2.63
2018-01-20T22:16:37.742Z,2.83
2018-01-20T22:19:06.076Z,2.03
2018-01-20T22:33:12.096Z,2.70
2018-01-20T22:35:40.365Z,1.77
2018-01-20T22:38:08.654Z,1.77
2018-01-20T22:40:36.913Z,2.30
2018-01-20T22:43:05.255Z,2.73
2018-01-20T22:45:33.527Z,6.17
2018-01-20T22:48:01.804Z,4.40
2018-01-20T22:50:30.842Z,4.20
2018-01-20T22:52:59.110Z,3.73
2018-01-20T23:04:06.073Z,2.00
2018-01-20T23:06:34.357Z,2.30
2018-01-20T23:09:02.622Z,1.90
2018-01-20T23:11:30.892Z,2.10
2018-01-20T23:13:59.144Z,2.13
2018-01-20T23:16:27.426Z,1.77
2018-01-20T23:18:55.689Z,2.63
2018-01-20T23:21:27.854Z,2.53
2018-01-20T23:23:56.162Z,2.80
2018-01-20T23:35:07.501Z,2.83
2018-01-20T23:37:35.801Z,2.90
2018-01-20T23:40:05.572Z,2.53
2018-01-20T23:42:33.907Z,2.83
2018-01-20T23:45:02.173Z,2.70
2018-01-20T23:47:30.447Z,2.60
2018-01-20T23:49:58.742Z,2.40
2018-01-20T23:52:27.000Z,2.47
2018-01-20T23:57:50.512Z,2.70
